KPSP/PSP METAR and TAF weather

Enter ICAO airport designator
Station Type Date Time Source
KPSP METAR 2022/01/29 00:53 UTC NOAA

KPSP 290053Z 02005KT 10SM CLR 19/M17 A3028 RMK AO2 SLP252 T01941172


Station Type Date Time Source
KPSP Decoded METAR 2022/01/29 00:53 UTC NOAA

PALM SPRINGS REGIONAL AIRPORT , CA, United States (KPSP) 33-50N 116-30W 135M
Jan 28, 2022 - 07:53 PM EST / 2022.01.29 0053 UTC
Wind: from the NNE (020 degrees) at 6 MPH (5 KT):0
Visibility: 10 mile(s):0
Sky conditions: clear
Temperature: 66.9 F (19.4 C)
Dew Point: 1.0 F (-17.2 C)
Relative Humidity: 7%
Pressure (altimeter): 30.28 in. Hg (1025 hPa)
ob: KPSP 290053Z 02005KT 10SM CLR 19/M17 A3028 RMK AO2 SLP252 T01941172
cycle: 1

Station Type Date Time Source
KPSP TAF 2022/01/28 21:59 UTC NOAA

TAF
AMD KPSP 282059Z 2821/2918 33010KT P6SM BKN250
FM282300 34005KT P6SM SCT250

Example: see airport list